sensor_id;sensor_type;location;lat;lon;timestamp;pressure;altitude;pressure_sealevel;temperature;humidity
21956;BME280;11142;49.930;8.606;2023-04-28T00:00:56;99918.56;;;13.59;88.83
21956;BME280;11142;49.930;8.606;2023-04-28T00:03:24;99912.59;;;13.79;86.90
21956;BME280;11142;49.930;8.606;2023-04-28T00:05:54;99913.78;;;13.87;85.16
21956;BME280;11142;49.930;8.606;2023-04-28T00:08:23;99914.75;;;13.74;86.06
21956;BME280;11142;49.930;8.606;2023-04-28T00:10:53;99909.88;;;13.81;86.98
21956;BME280;11142;49.930;8.606;2023-04-28T00:13:22;99904.75;;;13.91;85.26
21956;BME280;11142;49.930;8.606;2023-04-28T00:15:49;99898.06;;;13.66;86.91
21956;BME280;11142;49.930;8.606;2023-04-28T00:18:18;99904.34;;;13.52;89.04
21956;BME280;11142;49.930;8.606;2023-04-28T00:20:47;99894.19;;;13.38;91.87
21956;BME280;11142;49.930;8.606;2023-04-28T00:23:15;99891.69;;;13.37;92.89
21956;BME280;11142;49.930;8.606;2023-04-28T00:25:43;99894.75;;;13.42;91.33
21956;BME280;11142;49.930;8.606;2023-04-28T00:28:12;99883.97;;;13.35;91.50
21956;BME280;11142;49.930;8.606;2023-04-28T00:30:58;99885.78;;;13.35;91.44
21956;BME280;11142;49.930;8.606;2023-04-28T00:33:26;99868.72;;;13.30;91.26
21956;BME280;11142;49.930;8.606;2023-04-28T00:35:58;99876.41;;;13.21;93.39
21956;BME280;11142;49.930;8.606;2023-04-28T00:38:27;99864.06;;;13.01;95.61
21956;BME280;11142;49.930;8.606;2023-04-28T00:40:55;99865.94;;;12.88;97.45
21956;BME280;11142;49.930;8.606;2023-04-28T00:43:24;99857.31;;;12.76;100.00
21956;BME280;11142;49.930;8.606;2023-04-28T00:45:52;99854.72;;;12.87;100.00
21956;BME280;11142;49.930;8.606;2023-04-28T00:48:20;99852.47;;;13.05;99.06
21956;BME280;11142;49.930;8.606;2023-04-28T00:50:49;99844.31;;;13.20;97.87
21956;BME280;11142;49.930;8.606;2023-04-28T00:53:18;99852.94;;;13.32;96.48
21956;BME280;11142;49.930;8.606;2023-04-28T00:55:45;99854.50;;;13.23;95.44
21956;BME280;11142;49.930;8.606;2023-04-28T00:58:14;99849.06;;;13.26;95.96
21956;BME280;11142;49.930;8.606;2023-04-28T01:00:43;99845.38;;;13.29;97.09
21956;BME280;11142;49.930;8.606;2023-04-28T01:05:43;99836.75;;;13.28;96.98
21956;BME280;11142;49.930;8.606;2023-04-28T01:08:11;99834.00;;;12.86;100.00
21956;BME280;11142;49.930;8.606;2023-04-28T01:10:42;99828.66;;;12.65;100.00
21956;BME280;11142;49.930;8.606;2023-04-28T01:13:21;99817.53;;;12.85;100.00
21956;BME280;11142;49.930;8.606;2023-04-28T01:15:52;99812.09;;;12.99;100.00
21956;BME280;11142;49.930;8.606;2023-04-28T01:18:20;99811.25;;;12.99;100.00
21956;BME280;11142;49.930;8.606;2023-04-28T01:20:49;99808.53;;;13.00;100.00
21956;BME280;11142;49.930;8.606;2023-04-28T01:23:17;99800.16;;;12.74;100.00
21956;BME280;11142;49.930;8.606;2023-04-28T01:25:47;99802.03;;;12.61;100.00
21956;BME280;11142;49.930;8.606;2023-04-28T01:28:16;99806.28;;;12.51;100.00
21956;BME280;11142;49.930;8.606;2023-04-28T01:30:44;99803.66;;;12.51;100.00
21956;BME280;11142;49.930;8.606;2023-04-28T01:33:12;99808.31;;;12.59;100.00
21956;BME280;11142;49.930;8.606;2023-04-28T01:35:40;99799.31;;;12.74;100.00
21956;BME280;11142;49.930;8.606;2023-04-28T01:38:09;99800.38;;;12.83;100.00
21956;BME280;11142;49.930;8.606;2023-04-28T01:40:37;99801.09;;;12.96;100.00
21956;BME280;11142;49.930;8.606;2023-04-28T01:43:06;99798.00;;;13.02;100.00
21956;BME280;11142;49.930;8.606;2023-04-28T01:45:34;99786.78;;;13.12;100.00
21956;BME280;11142;49.930;8.606;2023-04-28T01:48:03;99794.22;;;12.72;100.00
21956;BME280;11142;49.930;8.606;2023-04-28T01:50:31;99784.13;;;12.35;100.00
21956;BME280;11142;49.930;8.606;2023-04-28T01:52:59;99781.69;;;11.98;100.00
21956;BME280;11142;49.930;8.606;2023-04-28T01:55:27;99787.66;;;11.88;100.00
21956;BME280;11142;49.930;8.606;2023-04-28T01:57:56;99777.03;;;11.91;100.00
21956;BME280;11142;49.930;8.606;2023-04-28T02:00:27;99773.59;;;11.90;100.00
21956;BME280;11142;49.930;8.606;2023-04-28T02:02:58;99777.34;;;12.10;100.00
21956;BME280;11142;49.930;8.606;2023-04-28T02:05:26;99786.97;;;12.32;100.00
21956;BME280;11142;49.930;8.606;2023-04-28T02:07:54;99792.81;;;11.77;100.00
21956;BME280;11142;49.930;8.606;2023-04-28T02:10:26;99776.69;;;11.24;100.00
21956;BME280;11142;49.930;8.606;2023-04-28T02:12:54;99790.38;;;10.90;100.00
21956;BME280;11142;49.930;8.606;2023-04-28T02:15:22;99787.69;;;10.79;100.00
21956;BME280;11142;49.930;8.606;2023-04-28T02:17:53;99785.22;;;10.77;100.00
21956;BME280;11142;49.930;8.606;2023-04-28T02:20:21;99779.00;;;10.54;100.00
21956;BME280;11142;49.930;8.606;2023-04-28T02:22:50;99778.06;;;10.55;100.00
21956;BME280;11142;49.930;8.606;2023-04-28T02:25:18;99780.44;;;10.71;100.00
21956;BME280;11142;49.930;8.606;2023-04-28T02:27:46;99769.84;;;10.87;100.00
21956;BME280;11142;49.930;8.606;2023-04-28T02:30:15;99770.13;;;10.95;100.00
21956;BME280;11142;49.930;8.606;2023-04-28T02:32:42;99761.72;;;10.91;100.00
21956;BME280;11142;49.930;8.606;2023-04-28T02:35:15;99755.91;;;10.75;100.00
21956;BME280;11142;49.930;8.606;2023-04-28T02:37:43;99758.19;;;10.92;100.00
21956;BME280;11142;49.930;8.606;2023-04-28T02:40:12;99764.22;;;10.93;100.00
21956;BME280;11142;49.930;8.606;2023-04-28T02:42:40;99769.91;;;10.98;100.00
21956;BME280;11142;49.930;8.606;2023-04-28T02:45:10;99770.47;;;10.78;100.00
21956;BME280;11142;49.930;8.606;2023-04-28T02:47:38;99765.13;;;10.92;100.00
21956;BME280;11142;49.930;8.606;2023-04-28T02:50:06;99751.88;;;11.20;100.00
21956;BME280;11142;49.930;8.606;2023-04-28T02:52:36;99753.22;;;11.49;100.00
21956;BME280;11142;49.930;8.606;2023-04-28T02:55:08;99755.75;;;11.62;100.00
21956;BME280;11142;49.930;8.606;2023-04-28T02:57:36;99759.03;;;11.64;100.00
21956;BME280;11142;49.930;8.606;2023-04-28T03:00:04;99749.16;;;11.69;100.00
21956;BME280;11142;49.930;8.606;2023-04-28T03:02:41;99744.41;;;11.63;100.00
21956;BME280;11142;49.930;8.606;2023-04-28T03:05:09;99742.88;;;11.60;100.00
21956;BME280;11142;49.930;8.606;2023-04-28T03:07:38;99742.44;;;11.66;100.00
21956;BME280;11142;49.930;8.606;2023-04-28T03:10:08;99744.53;;;11.85;100.00
21956;BME280;11142;49.930;8.606;2023-04-28T03:12:36;99744.59;;;12.07;100.00
21956;BME280;11142;49.930;8.606;2023-04-28T03:15:05;99750.41;;;12.22;100.00
21956;BME280;11142;49.930;8.606;2023-04-28T03:17:36;99742.00;;;12.41;100.00
21956;BME280;11142;49.930;8.606;2023-04-28T03:20:08;99749.38;;;12.58;100.00
21956;BME280;11142;49.930;8.606;2023-04-28T03:22:36;99752.56;;;12.72;100.00
21956;BME280;11142;49.930;8.606;2023-04-28T03:25:06;99747.59;;;12.69;100.00
21956;BME280;11142;49.930;8.606;2023-04-28T03:27:42;99749.00;;;12.62;100.00
21956;BME280;11142;49.930;8.606;2023-04-28T03:30:10;99746.03;;;12.56;100.00
21956;BME280;11142;49.930;8.606;2023-04-28T03:32:40;99738.00;;;12.48;100.00
21956;BME280;11142;49.930;8.606;2023-04-28T03:35:08;99729.13;;;12.39;100.00
21956;BME280;11142;49.930;8.606;2023-04-28T03:37:38;99726.03;;;12.23;100.00
21956;BME280;11142;49.930;8.606;2023-04-28T03:40:09;99714.22;;;12.30;100.00
21956;BME280;11142;49.930;8.606;2023-04-28T03:42:57;99715.75;;;12.21;100.00
21956;BME280;11142;49.930;8.606;2023-04-28T03:45:31;99726.63;;;12.15;100.00
21956;BME280;11142;49.930;8.606;2023-04-28T03:48:00;99722.00;;;12.08;100.00
21956;BME280;11142;49.930;8.606;2023-04-28T03:50:28;99710.50;;;11.99;100.00
21956;BME280;11142;49.930;8.606;2023-04-28T03:52:56;99721.53;;;12.14;100.00
21956;BME280;11142;49.930;8.606;2023-04-28T03:55:28;99726.97;;;12.11;100.00
21956;BME280;11142;49.930;8.606;2023-04-28T03:57:57;99715.97;;;12.18;100.00
21956;BME280;11142;49.930;8.606;2023-04-28T04:00:25;99702.97;;;12.07;100.00
21956;BME280;11142;49.930;8.606;2023-04-28T04:02:54;99704.47;;;11.99;100.00
21956;BME280;11142;49.930;8.606;2023-04-28T04:05:22;99690.63;;;11.87;100.00
21956;BME280;11142;49.930;8.606;2023-04-28T04:07:51;99692.03;;;11.80;100.00
21956;BME280;11142;49.930;8.606;2023-04-28T04:10:19;99684.00;;;11.83;100.00
21956;BME280;11142;49.930;8.606;2023-04-28T04:12:50;99682.28;;;11.95;100.00
21956;BME280;11142;49.930;8.606;2023-04-28T04:15:18;99671.41;;;12.01;100.00
21956;BME280;11142;49.930;8.606;2023-04-28T04:17:47;99668.78;;;12.12;100.00
21956;BME280;11142;49.930;8.606;2023-04-28T04:20:15;99671.28;;;12.24;100.00
21956;BME280;11142;49.930;8.606;2023-04-28T04:22:44;99667.41;;;12.30;100.00
21956;BME280;11142;49.930;8.606;2023-04-28T04:25:13;99665.38;;;12.34;100.00
21956;BME280;11142;49.930;8.606;2023-04-28T04:27:45;99655.09;;;12.32;100.00
21956;BME280;11142;49.930;8.606;2023-04-28T04:30:15;99662.88;;;12.43;100.00
21956;BME280;11142;49.930;8.606;2023-04-28T04:32:44;99663.59;;;12.56;100.00
21956;BME280;11142;49.930;8.606;2023-04-28T04:35:13;99662.84;;;12.65;100.00
21956;BME280;11142;49.930;8.606;2023-04-28T04:37:41;99664.28;;;12.81;100.00
21956;BME280;11142;49.930;8.606;2023-04-28T04:40:10;99660.44;;;12.96;100.00
21956;BME280;11142;49.930;8.606;2023-04-28T04:42:46;99656.91;;;12.97;100.00
21956;BME280;11142;49.930;8.606;2023-04-28T04:45:22;99656.25;;;13.04;100.00
21956;BME280;11142;49.930;8.606;2023-04-28T04:47:53;99658.16;;;13.13;100.00
21956;BME280;11142;49.930;8.606;2023-04-28T04:50:22;99658.63;;;13.07;100.00
21956;BME280;11142;49.930;8.606;2023-04-28T04:52:54;99647.81;;;13.23;100.00
21956;BME280;11142;49.930;8.606;2023-04-28T04:55:24;99654.59;;;13.46;100.00
21956;BME280;11142;49.930;8.606;2023-04-28T04:57:56;99654.34;;;13.49;100.00
21956;BME280;11142;49.930;8.606;2023-04-28T05:00:40;99654.16;;;13.41;100.00
21956;BME280;11142;49.930;8.606;2023-04-28T05:03:10;99654.91;;;13.53;100.00
21956;BME280;11142;49.930;8.606;2023-04-28T05:05:39;99654.78;;;13.54;100.00
21956;BME280;11142;49.930;8.606;2023-04-28T05:08:17;99657.78;;;13.70;100.00
21956;BME280;11142;49.930;8.606;2023-04-28T05:10:44;99659.25;;;13.63;100.00
21956;BME280;11142;49.930;8.606;2023-04-28T05:13:13;99669.31;;;13.36;100.00
21956;BME280;11142;49.930;8.606;2023-04-28T05:15:43;99683.50;;;13.11;100.00
21956;BME280;11142;49.930;8.606;2023-04-28T05:18:42;99671.72;;;11.85;100.00
21956;BME280;11142;49.930;8.606;2023-04-28T05:21:13;99651.78;;;11.27;100.00
21956;BME280;11142;49.930;8.606;2023-04-28T05:23:41;99648.44;;;11.14;100.00
21956;BME280;11142;49.930;8.606;2023-04-28T05:26:10;99640.63;;;11.38;100.00
21956;BME280;11142;49.930;8.606;2023-04-28T05:28:38;99654.16;;;11.65;100.00
21956;BME280;11142;49.930;8.606;2023-04-28T05:31:08;99647.16;;;11.19;100.00
21956;BME280;11142;49.930;8.606;2023-04-28T05:33:36;99661.03;;;11.07;100.00
21956;BME280;11142;49.930;8.606;2023-04-28T05:36:05;99654.06;;;11.08;100.00
21956;BME280;11142;49.930;8.606;2023-04-28T05:38:33;99646.81;;;11.00;100.00
21956;BME280;11142;49.930;8.606;2023-04-28T05:41:02;99647.06;;;11.32;100.00
21956;BME280;11142;49.930;8.606;2023-04-28T05:43:30;99654.94;;;11.54;100.00
21956;BME280;11142;49.930;8.606;2023-04-28T05:45:58;99664.53;;;12.00;100.00
21956;BME280;11142;49.930;8.606;2023-04-28T05:48:30;99679.44;;;12.31;100.00
21956;BME280;11142;49.930;8.606;2023-04-28T05:50:59;99686.19;;;12.22;100.00
21956;BME280;11142;49.930;8.606;2023-04-28T05:53:27;99682.81;;;11.76;100.00
21956;BME280;11142;49.930;8.606;2023-04-28T05:55:56;99672.03;;;11.35;100.00
21956;BME280;11142;49.930;8.606;2023-04-28T05:58:24;99670.44;;;11.56;100.00
21956;BME280;11142;49.930;8.606;2023-04-28T06:00:52;99672.28;;;10.95;100.00
21956;BME280;11142;49.930;8.606;2023-04-28T06:03:20;99662.09;;;10.81;100.00
21956;BME280;11142;49.930;8.606;2023-04-28T06:05:51;99656.16;;;10.79;100.00
21956;BME280;11142;49.930;8.606;2023-04-28T06:08:19;99655.41;;;10.90;100.00
21956;BME280;11142;49.930;8.606;2023-04-28T06:10:48;99649.16;;;11.16;100.00
21956;BME280;11142;49.930;8.606;2023-04-28T06:13:20;99640.53;;;11.85;100.00
21956;BME280;11142;49.930;8.606;2023-04-28T06:15:48;99652.50;;;12.32;100.00
21956;BME280;11142;49.930;8.606;2023-04-28T06:18:16;99654.00;;;12.57;100.00
21956;BME280;11142;49.930;8.606;2023-04-28T06:20:45;99661.59;;;12.27;100.00
21956;BME280;11142;49.930;8.606;2023-04-28T06:23:14;99671.00;;;11.72;100.00
21956;BME280;11142;49.930;8.606;2023-04-28T06:25:45;99661.41;;;11.38;100.00
21956;BME280;11142;49.930;8.606;2023-04-28T06:28:14;99664.41;;;11.55;100.00
21956;BME280;11142;49.930;8.606;2023-04-28T06:30:42;99667.56;;;11.71;100.00
21956;BME280;11142;49.930;8.606;2023-04-28T06:33:10;99677.53;;;11.54;100.00
21956;BME280;11142;49.930;8.606;2023-04-28T06:35:38;99666.78;;;12.15;100.00
21956;BME280;11142;49.930;8.606;2023-04-28T06:38:06;99667.53;;;12.40;100.00
21956;BME280;11142;49.930;8.606;2023-04-28T06:40:37;99678.88;;;12.16;100.00
21956;BME280;11142;49.930;8.606;2023-04-28T06:43:06;99692.53;;;11.85;100.00
21956;BME280;11142;49.930;8.606;2023-04-28T06:45:39;99683.91;;;11.85;100.00
21956;BME280;11142;49.930;8.606;2023-04-28T06:48:07;99683.94;;;12.18;100.00
21956;BME280;11142;49.930;8.606;2023-04-28T06:50:37;99696.03;;;12.52;100.00
21956;BME280;11142;49.930;8.606;2023-04-28T06:53:07;99694.69;;;12.69;100.00
21956;BME280;11142;49.930;8.606;2023-04-28T06:55:37;99698.88;;;13.03;100.00
21956;BME280;11142;49.930;8.606;2023-04-28T06:58:05;99702.69;;;12.99;100.00
21956;BME280;11142;49.930;8.606;2023-04-28T07:00:33;99699.69;;;12.39;100.00
21956;BME280;11142;49.930;8.606;2023-04-28T07:03:01;99671.53;;;12.55;100.00
21956;BME280;11142;49.930;8.606;2023-04-28T07:05:30;99670.81;;;12.64;100.00
21956;BME280;11142;49.930;8.606;2023-04-28T07:07:59;99687.25;;;12.42;100.00
21956;BME280;11142;49.930;8.606;2023-04-28T07:10:28;99685.84;;;12.38;100.00
21956;BME280;11142;49.930;8.606;2023-04-28T07:12:57;99678.97;;;12.37;100.00
21956;BME280;11142;49.930;8.606;2023-04-28T07:15:26;99670.72;;;12.97;100.00
21956;BME280;11142;49.930;8.606;2023-04-28T07:17:58;99669.25;;;13.26;100.00
21956;BME280;11142;49.930;8.606;2023-04-28T07:20:27;99677.94;;;13.16;100.00
21956;BME280;11142;49.930;8.606;2023-04-28T07:22:55;99671.44;;;13.10;100.00
21956;BME280;11142;49.930;8.606;2023-04-28T07:25:24;99660.06;;;13.43;100.00
21956;BME280;11142;49.930;8.606;2023-04-28T07:27:52;99662.03;;;13.71;100.00
21956;BME280;11142;49.930;8.606;2023-04-28T07:30:22;99666.44;;;13.92;100.00
21956;BME280;11142;49.930;8.606;2023-04-28T07:32:55;99662.38;;;14.08;100.00
21956;BME280;11142;49.930;8.606;2023-04-28T07:35:23;99670.38;;;14.37;100.00
21956;BME280;11142;49.930;8.606;2023-04-28T07:37:52;99679.91;;;14.48;100.00
21956;BME280;11142;49.930;8.606;2023-04-28T07:40:20;99673.69;;;14.18;100.00
21956;BME280;11142;49.930;8.606;2023-04-28T07:42:49;99666.19;;;13.95;100.00
21956;BME280;11142;49.930;8.606;2023-04-28T07:45:17;99670.03;;;14.00;100.00
21956;BME280;11142;49.930;8.606;2023-04-28T07:47:50;99663.81;;;14.22;100.00
21956;BME280;11142;49.930;8.606;2023-04-28T07:50:18;99663.09;;;14.41;100.00
21956;BME280;11142;49.930;8.606;2023-04-28T07:52:46;99659.16;;;14.56;100.00
21956;BME280;11142;49.930;8.606;2023-04-28T07:55:15;99667.13;;;14.45;100.00
21956;BME280;11142;49.930;8.606;2023-04-28T07:57:43;99665.50;;;14.23;100.00
21956;BME280;11142;49.930;8.606;2023-04-28T08:00:11;99672.19;;;14.46;100.00
21956;BME280;11142;49.930;8.606;2023-04-28T08:02:40;99673.34;;;14.63;100.00
21956;BME280;11142;49.930;8.606;2023-04-28T08:05:10;99667.13;;;15.04;100.00
21956;BME280;11142;49.930;8.606;2023-04-28T08:07:38;99675.66;;;15.06;100.00
21956;BME280;11142;49.930;8.606;2023-04-28T08:10:07;99675.69;;;15.15;100.00
21956;BME280;11142;49.930;8.606;2023-04-28T08:12:36;99671.97;;;15.47;100.00
21956;BME280;11142;49.930;8.606;2023-04-28T08:15:04;99681.19;;;15.60;100.00
21956;BME280;11142;49.930;8.606;2023-04-28T08:17:32;99682.44;;;15.85;100.00
21956;BME280;11142;49.930;8.606;2023-04-28T08:20:01;99680.59;;;15.95;100.00
21956;BME280;11142;49.930;8.606;2023-04-28T08:22:30;99694.78;;;15.92;100.00
21956;BME280;11142;49.930;8.606;2023-04-28T08:24:59;99694.16;;;15.52;100.00
21956;BME280;11142;49.930;8.606;2023-04-28T08:27:27;99696.06;;;15.40;100.00
21956;BME280;11142;49.930;8.606;2023-04-28T08:29:55;99689.59;;;14.66;100.00
21956;BME280;11142;49.930;8.606;2023-04-28T08:32:23;99682.38;;;14.89;100.00
21956;BME280;11142;49.930;8.606;2023-04-28T08:34:51;99696.88;;;15.31;100.00
21956;BME280;11142;49.930;8.606;2023-04-28T08:37:19;99693.84;;;15.36;100.00
21956;BME280;11142;49.930;8.606;2023-04-28T08:39:49;99698.25;;;15.74;100.00
21956;BME280;11142;49.930;8.606;2023-04-28T08:42:18;99694.88;;;14.85;100.00
21956;BME280;11142;49.930;8.606;2023-04-28T08:44:47;99689.56;;;14.57;100.00
21956;BME280;11142;49.930;8.606;2023-04-28T08:47:16;99684.03;;;13.99;100.00
21956;BME280;11142;49.930;8.606;2023-04-28T08:49:46;99675.06;;;13.92;100.00
21956;BME280;11142;49.930;8.606;2023-04-28T08:52:16;99680.22;;;14.54;100.00
21956;BME280;11142;49.930;8.606;2023-04-28T08:54:44;99684.22;;;15.27;100.00
21956;BME280;11142;49.930;8.606;2023-04-28T08:57:17;99705.00;;;15.67;100.00
21956;BME280;11142;49.930;8.606;2023-04-28T08:59:46;99701.06;;;14.45;100.00
21956;BME280;11142;49.930;8.606;2023-04-28T09:02:14;99688.00;;;14.24;100.00
21956;BME280;11142;49.930;8.606;2023-04-28T09:04:42;99674.06;;;13.83;100.00
21956;BME280;11142;49.930;8.606;2023-04-28T09:07:12;99678.69;;;13.80;100.00
21956;BME280;11142;49.930;8.606;2023-04-28T09:09:40;99674.16;;;14.03;100.00
21956;BME280;11142;49.930;8.606;2023-04-28T09:12:08;99675.06;;;14.43;100.00
21956;BME280;11142;49.930;8.606;2023-04-28T09:14:38;99691.25;;;14.67;100.00
21956;BME280;11142;49.930;8.606;2023-04-28T09:17:09;99688.63;;;15.46;100.00
21956;BME280;11142;49.930;8.606;2023-04-28T09:19:39;99700.50;;;16.25;100.00
21956;BME280;11142;49.930;8.606;2023-04-28T09:22:09;99707.94;;;16.66;100.00
21956;BME280;11142;49.930;8.606;2023-04-28T09:24:52;99705.81;;;17.42;100.00
21956;BME280;11142;49.930;8.606;2023-04-28T09:27:25;99710.94;;;16.71;100.00
21956;BME280;11142;49.930;8.606;2023-04-28T09:29:55;99709.03;;;14.83;100.00
21956;BME280;11142;49.930;8.606;2023-04-28T09:32:23;99692.06;;;13.87;100.00
21956;BME280;11142;49.930;8.606;2023-04-28T09:34:54;99670.72;;;14.23;100.00
21956;BME280;11142;49.930;8.606;2023-04-28T09:37:23;99673.09;;;13.64;100.00
21956;BME280;11142;49.930;8.606;2023-04-28T09:39:53;99659.81;;;13.88;100.00
21956;BME280;11142;49.930;8.606;2023-04-28T09:42:31;99667.91;;;13.84;100.00
21956;BME280;11142;49.930;8.606;2023-04-28T09:45:03;99680.47;;;15.20;100.00
21956;BME280;11142;49.930;8.606;2023-04-28T09:47:33;99697.72;;;16.36;100.00
21956;BME280;11142;49.930;8.606;2023-04-28T09:50:03;99709.94;;;16.55;100.00
21956;BME280;11142;49.930;8.606;2023-04-28T09:52:32;99698.47;;;14.94;100.00
21956;BME280;11142;49.930;8.606;2023-04-28T09:57:29;99699.56;;;15.01;100.00
21956;BME280;11142;49.930;8.606;2023-04-28T09:59:59;99707.44;;;16.07;100.00
21956;BME280;11142;49.930;8.606;2023-04-28T10:02:32;99704.28;;;15.17;100.00
21956;BME280;11142;49.930;8.606;2023-04-28T10:05:09;99703.88;;;16.08;100.00
21956;BME280;11142;49.930;8.606;2023-04-28T10:07:38;99721.25;;;16.45;100.00
21956;BME280;11142;49.930;8.606;2023-04-28T10:10:07;99712.09;;;16.22;100.00
21956;BME280;11142;49.930;8.606;2023-04-28T10:12:36;99708.06;;;17.90;100.00
21956;BME280;11142;49.930;8.606;2023-04-28T10:15:05;99712.13;;;19.03;100.00
21956;BME280;11142;49.930;8.606;2023-04-28T10:17:35;99727.50;;;20.84;100.00
21956;BME280;11142;49.930;8.606;2023-04-28T10:20:05;99721.53;;;21.75;100.00
21956;BME280;11142;49.930;8.606;2023-04-28T10:22:39;99724.41;;;22.84;91.61
21956;BME280;11142;49.930;8.606;2023-04-28T10:25:18;99726.28;;;20.64;100.00
21956;BME280;11142;49.930;8.606;2023-04-28T10:27:52;99727.72;;;20.03;100.00
21956;BME280;11142;49.930;8.606;2023-04-28T10:30:21;99716.25;;;18.13;100.00
21956;BME280;11142;49.930;8.606;2023-04-28T10:35:43;99714.09;;;18.60;100.00
21956;BME280;11142;49.930;8.606;2023-04-28T10:38:12;99707.50;;;18.30;100.00
21956;BME280;11142;49.930;8.606;2023-04-28T10:40:41;99714.47;;;18.73;100.00
21956;BME280;11142;49.930;8.606;2023-04-28T10:43:10;99712.09;;;19.78;100.00
21956;BME280;11142;49.930;8.606;2023-04-28T10:45:58;99715.41;;;20.67;100.00
21956;BME280;11142;49.930;8.606;2023-04-28T10:51:22;99710.38;;;22.39;100.00
21956;BME280;11142;49.930;8.606;2023-04-28T10:56:38;99702.03;;;20.13;100.00
21956;BME280;11142;49.930;8.606;2023-04-28T10:59:24;99699.91;;;22.16;100.00
21956;BME280;11142;49.930;8.606;2023-04-28T11:07:24;99708.56;;;20.17;100.00
21956;BME280;11142;49.930;8.606;2023-04-28T11:09:52;99711.56;;;19.42;100.00
21956;BME280;11142;49.930;8.606;2023-04-28T11:12:21;99708.69;;;21.26;100.00
21956;BME280;11142;49.930;8.606;2023-04-28T11:14:50;99712.50;;;20.85;100.00
21956;BME280;11142;49.930;8.606;2023-04-28T11:17:18;99712.38;;;21.17;100.00
21956;BME280;11142;49.930;8.606;2023-04-28T11:20:02;99704.84;;;21.59;100.00
21956;BME280;11142;49.930;8.606;2023-04-28T11:22:33;99710.28;;;22.33;100.00
21956;BME280;11142;49.930;8.606;2023-04-28T11:25:02;99701.00;;;23.38;92.94
21956;BME280;11142;49.930;8.606;2023-04-28T11:27:31;99689.97;;;21.81;100.00
21956;BME280;11142;49.930;8.606;2023-04-28T11:30:00;99698.88;;;21.80;100.00
21956;BME280;11142;49.930;8.606;2023-04-28T11:32:28;99704.06;;;21.88;100.00
21956;BME280;11142;49.930;8.606;2023-04-28T11:34:57;99712.34;;;20.39;100.00
21956;BME280;11142;49.930;8.606;2023-04-28T11:37:25;99711.53;;;18.16;100.00
21956;BME280;11142;49.930;8.606;2023-04-28T11:39:55;99697.47;;;17.56;100.00
21956;BME280;11142;49.930;8.606;2023-04-28T11:42:24;99702.81;;;18.75;100.00
21956;BME280;11142;49.930;8.606;2023-04-28T11:44:57;99701.56;;;19.78;100.00
21956;BME280;11142;49.930;8.606;2023-04-28T11:47:29;99690.50;;;20.61;100.00
21956;BME280;11142;49.930;8.606;2023-04-28T11:49:59;99698.19;;;21.18;100.00
21956;BME280;11142;49.930;8.606;2023-04-28T11:52:27;99705.81;;;21.58;100.00
21956;BME280;11142;49.930;8.606;2023-04-28T11:54:59;99690.09;;;21.65;100.00
21956;BME280;11142;49.930;8.606;2023-04-28T11:57:29;99696.97;;;22.11;100.00
21956;BME280;11142;49.930;8.606;2023-04-28T12:00:10;99691.50;;;22.71;100.00
21956;BME280;11142;49.930;8.606;2023-04-28T12:02:40;99693.34;;;23.07;100.00
21956;BME280;11142;49.930;8.606;2023-04-28T12:05:10;99693.16;;;22.72;100.00
21956;BME280;11142;49.930;8.606;2023-04-28T12:07:39;99687.13;;;22.49;100.00
21956;BME280;11142;49.930;8.606;2023-04-28T12:10:11;99685.97;;;22.66;100.00
21956;BME280;11142;49.930;8.606;2023-04-28T12:12:40;99690.22;;;22.82;100.00
21956;BME280;11142;49.930;8.606;2023-04-28T12:15:18;99686.47;;;23.12;100.00
21956;BME280;11142;49.930;8.606;2023-04-28T12:17:48;99679.00;;;23.37;95.21
21956;BME280;11142;49.930;8.606;2023-04-28T12:23:03;99668.38;;;24.76;86.61
21956;BME280;11142;49.930;8.606;2023-04-28T12:25:43;99665.72;;;25.36;78.82
21956;BME280;11142;49.930;8.606;2023-04-28T12:28:11;99663.06;;;26.86;69.56
21956;BME280;11142;49.930;8.606;2023-04-28T12:30:40;99661.97;;;26.42;70.90
21956;BME280;11142;49.930;8.606;2023-04-28T12:33:20;99669.75;;;29.16;57.89
21956;BME280;11142;49.930;8.606;2023-04-28T12:35:49;99688.31;;;31.82;45.41
21956;BME280;11142;49.930;8.606;2023-04-28T12:38:17;99682.47;;;34.37;38.61
21956;BME280;11142;49.930;8.606;2023-04-28T12:40:47;99696.00;;;35.09;35.96
21956;BME280;11142;49.930;8.606;2023-04-28T12:43:15;99697.97;;;35.59;35.53
21956;BME280;11142;49.930;8.606;2023-04-28T12:45:44;99693.63;;;35.48;35.91
21956;BME280;11142;49.930;8.606;2023-04-28T12:48:12;99689.31;;;35.78;34.71
21956;BME280;11142;49.930;8.606;2023-04-28T12:50:40;99681.03;;;33.83;37.83
21956;BME280;11142;49.930;8.606;2023-04-28T12:53:08;99684.97;;;36.02;33.79
21956;BME280;11142;49.930;8.606;2023-04-28T12:55:36;99693.97;;;34.17;36.14
21956;BME280;11142;49.930;8.606;2023-04-28T12:58:07;99688.03;;;32.00;40.58
21956;BME280;11142;49.930;8.606;2023-04-28T13:00:36;99688.09;;;29.95;48.33
21956;BME280;11142;49.930;8.606;2023-04-28T13:03:03;99686.72;;;27.94;57.94
21956;BME280;11142;49.930;8.606;2023-04-28T13:05:32;99676.78;;;26.19;69.94
21956;BME280;11142;49.930;8.606;2023-04-28T13:08:02;99679.25;;;25.68;76.18
21956;BME280;11142;49.930;8.606;2023-04-28T13:10:30;99681.16;;;25.00;79.39
21956;BME280;11142;49.930;8.606;2023-04-28T13:12:59;99675.94;;;24.10;88.79
21956;BME280;11142;49.930;8.606;2023-04-28T13:15:29;99668.44;;;23.86;95.51
21956;BME280;11142;49.930;8.606;2023-04-28T13:18:00;99666.44;;;24.50;88.30
21956;BME280;11142;49.930;8.606;2023-04-28T13:20:28;99658.97;;;24.67;83.76
21956;BME280;11142;49.930;8.606;2023-04-28T13:22:56;99653.81;;;25.13;81.98
21956;BME280;11142;49.930;8.606;2023-04-28T13:25:24;99653.00;;;24.65;82.70
21956;BME280;11142;49.930;8.606;2023-04-28T13:27:53;99655.72;;;24.30;87.01